createdAt,value
2023-03-17T00:00:49.145Z,5.07
2023-03-17T00:03:22.818Z,4.75
2023-03-17T00:05:52.004Z,4.40
2023-03-17T00:08:25.359Z,4.93
2023-03-17T00:10:53.898Z,4.45
2023-03-17T00:13:24.011Z,4.43
2023-03-17T00:15:56.207Z,4.45
2023-03-17T00:18:25.786Z,5.60
2023-03-17T00:21:29.655Z,5.15
2023-03-17T00:24:08.115Z,5.22
2023-03-17T00:26:40.037Z,5.28
2023-03-17T00:29:09.912Z,4.72
2023-03-17T00:31:40.286Z,4.80
2023-03-17T00:34:13.106Z,4.45
2023-03-17T00:36:41.766Z,4.75
2023-03-17T00:41:43.484Z,5.40
2023-03-17T00:44:11.854Z,5.95
2023-03-17T00:46:44.647Z,6.47
2023-03-17T00:49:20.902Z,5.63
2023-03-17T00:51:50.794Z,6.72
2023-03-17T00:54:20.673Z,4.70
2023-03-17T00:56:50.877Z,6.65
2023-03-17T00:59:25.427Z,6.03
2023-03-17T01:01:56.226Z,6.18
2023-03-17T01:04:25.493Z,7.05
2023-03-17T01:06:54.149Z,6.07
2023-03-17T01:09:26.428Z,6.70
2023-03-17T01:11:55.135Z,5.88
2023-03-17T01:14:24.829Z,5.75
2023-03-17T01:16:55.223Z,6.35
2023-03-17T01:19:23.698Z,6.90
2023-03-17T01:21:52.316Z,6.28
2023-03-17T01:24:21.050Z,5.85
2023-03-17T01:26:49.130Z,6.93
2023-03-17T01:29:17.596Z,6.68
2023-03-17T01:31:46.244Z,8.05
2023-03-17T01:34:15.863Z,6.95
2023-03-17T01:36:43.920Z,7.35
2023-03-17T01:39:12.875Z,7.03
2023-03-17T01:41:41.413Z,6.05
2023-03-17T01:44:15.921Z,6.93
2023-03-17T01:46:45.466Z,9.05
2023-03-17T01:49:20.402Z,7.82
2023-03-17T01:51:55.634Z,8.60
2023-03-17T01:54:28.409Z,7.97
2023-03-17T01:56:59.790Z,8.02
2023-03-17T01:59:32.538Z,7.13
2023-03-17T02:02:04.832Z,7.65
2023-03-17T02:04:35.836Z,7.35
2023-03-17T02:07:05.384Z,7.60
2023-03-17T02:09:35.163Z,7.25
2023-03-17T02:12:03.897Z,8.25
2023-03-17T02:14:32.057Z,7.43
2023-03-17T02:17:00.156Z,7.82
2023-03-17T02:19:28.623Z,7.70
2023-03-17T02:21:59.858Z,8.68
2023-03-17T02:24:34.400Z,8.90
2023-03-17T02:27:09.235Z,7.93
2023-03-17T02:29:37.910Z,8.15
2023-03-17T02:32:07.375Z,8.20
2023-03-17T02:34:35.739Z,8.77
2023-03-17T02:37:05.877Z,8.30
2023-03-17T02:39:34.658Z,8.50
2023-03-17T02:42:03.332Z,7.55
2023-03-17T02:44:31.518Z,8.68
2023-03-17T02:47:01.015Z,8.35
2023-03-17T02:49:30.826Z,9.80
2023-03-17T02:51:59.089Z,8.43
2023-03-17T02:54:28.578Z,7.85
2023-03-17T02:56:56.687Z,9.15
2023-03-17T02:59:24.842Z,8.88
2023-03-17T03:01:53.073Z,8.90
2023-03-17T03:04:21.620Z,8.55
2023-03-17T03:06:49.888Z,8.27
2023-03-17T03:09:18.868Z,9.65
2023-03-17T03:11:48.709Z,8.40
2023-03-17T03:14:17.133Z,8.70
2023-03-17T03:16:45.428Z,8.60
2023-03-17T03:19:13.410Z,9.00
2023-03-17T03:21:42.365Z,7.75
2023-03-17T03:24:10.956Z,9.68
2023-03-17T03:26:39.182Z,8.57
2023-03-17T03:29:09.096Z,8.75
2023-03-17T03:31:37.721Z,8.82
2023-03-17T03:34:06.108Z,7.32
2023-03-17T03:36:34.299Z,9.23
2023-03-17T03:39:03.179Z,8.35
2023-03-17T03:41:31.704Z,8.65
2023-03-17T03:43:59.747Z,8.85
2023-03-17T03:46:29.896Z,8.65
2023-03-17T03:48:58.043Z,10.07
2023-03-17T03:51:27.824Z,8.27
2023-03-17T03:53:55.962Z,9.70
2023-03-17T03:56:24.170Z,9.38
2023-03-17T03:58:52.329Z,8.52
2023-03-17T04:01:20.394Z,8.95
2023-03-17T04:03:49.972Z,9.57
2023-03-17T04:06:18.329Z,10.05
2023-03-17T04:08:46.441Z,9.38
2023-03-17T04:11:14.507Z,10.18
2023-03-17T04:13:43.108Z,8.40
2023-03-17T04:16:11.281Z,10.68
2023-03-17T04:18:39.456Z,9.18
2023-03-17T04:21:09.353Z,9.48
2023-03-17T04:23:37.707Z,10.48
2023-03-17T04:26:06.064Z,7.32
2023-03-17T04:28:35.757Z,9.75
2023-03-17T04:31:06.361Z,9.50
2023-03-17T04:33:34.522Z,8.50
2023-03-17T04:36:04.075Z,10.25
2023-03-17T04:38:34.300Z,9.27
2023-03-17T04:41:02.691Z,8.82
2023-03-17T04:43:30.859Z,9.27
2023-03-17T04:45:59.163Z,10.32
2023-03-17T04:48:27.282Z,9.35
2023-03-17T04:50:55.487Z,9.30
2023-03-17T04:53:24.724Z,9.40
2023-03-17T04:55:54.195Z,8.50
2023-03-17T04:58:30.512Z,8.90
2023-03-17T05:00:59.757Z,8.82
2023-03-17T05:03:28.733Z,8.30
2023-03-17T05:05:57.424Z,9.13
2023-03-17T05:08:25.903Z,10.52
2023-03-17T05:10:56.068Z,8.88
2023-03-17T05:13:24.639Z,9.35
2023-03-17T05:15:55.018Z,9.80
2023-03-17T05:18:26.279Z,9.32
2023-03-17T05:20:54.863Z,9.18
2023-03-17T05:23:23.610Z,10.02
2023-03-17T05:25:52.697Z,8.57
2023-03-17T05:28:22.640Z,9.02
2023-03-17T05:30:52.134Z,9.02
2023-03-17T05:33:21.652Z,8.82
2023-03-17T05:35:49.776Z,7.90
2023-03-17T05:38:18.874Z,9.50
2023-03-17T05:40:48.420Z,8.65
2023-03-17T05:43:16.482Z,8.70
2023-03-17T05:45:47.345Z,10.02
2023-03-17T05:48:15.746Z,9.55
2023-03-17T05:50:45.993Z,9.15
2023-03-17T05:53:14.082Z,9.85
2023-03-17T05:55:42.737Z,9.15
2023-03-17T05:58:10.784Z,9.23
2023-03-17T06:00:38.915Z,9.77
2023-03-17T06:03:11.748Z,8.85
2023-03-17T06:05:39.826Z,9.82
2023-03-17T06:08:08.039Z,9.00
2023-03-17T06:10:36.371Z,9.10
2023-03-17T06:13:04.677Z,9.63
2023-03-17T06:15:34.356Z,9.52
2023-03-17T06:18:02.848Z,9.45
2023-03-17T06:20:32.392Z,9.73
2023-03-17T06:23:04.910Z,9.23
2023-03-17T06:25:34.146Z,9.15
2023-03-17T06:28:03.884Z,9.77
2023-03-17T06:30:33.044Z,8.52
2023-03-17T06:33:02.375Z,9.50
2023-03-17T06:35:32.725Z,10.02
2023-03-17T06:38:01.165Z,9.13
2023-03-17T06:40:31.112Z,9.10
2023-03-17T06:42:59.710Z,10.15
2023-03-17T06:45:28.080Z,10.00
2023-03-17T06:47:57.065Z,8.98
2023-03-17T06:50:25.404Z,8.95
2023-03-17T06:52:54.853Z,9.43
2023-03-17T06:55:22.901Z,9.27
2023-03-17T06:57:54.262Z,9.30
2023-03-17T07:00:23.836Z,9.55
2023-03-17T07:02:52.726Z,7.55
2023-03-17T07:05:21.629Z,9.30
2023-03-17T07:07:50.121Z,10.70
2023-03-17T07:10:20.260Z,8.40
2023-03-17T07:12:49.037Z,10.18
2023-03-17T07:15:18.929Z,9.00
2023-03-17T07:17:47.941Z,9.23
2023-03-17T07:20:16.264Z,8.85
2023-03-17T07:22:44.619Z,9.60
2023-03-17T07:25:12.727Z,10.25
2023-03-17T07:27:42.398Z,9.65
2023-03-17T07:30:12.907Z,9.13
2023-03-17T07:32:41.811Z,9.75
2023-03-17T07:35:10.247Z,9.32
2023-03-17T07:37:38.381Z,9.88
2023-03-17T07:40:09.213Z,8.88
2023-03-17T07:42:37.445Z,8.20
2023-03-17T07:45:08.784Z,9.23
2023-03-17T07:47:36.954Z,8.70
2023-03-17T07:50:05.408Z,8.63
2023-03-17T07:52:34.379Z,9.27
2023-03-17T07:55:02.544Z,8.50
2023-03-17T07:57:30.753Z,9.05
2023-03-17T08:00:01.589Z,8.88
2023-03-17T08:02:32.843Z,8.00
2023-03-17T08:05:02.044Z,8.98
2023-03-17T08:07:31.008Z,10.75
2023-03-17T08:09:59.819Z,9.55
2023-03-17T08:12:28.004Z,8.55
2023-03-17T08:14:56.637Z,8.63
2023-03-17T08:17:27.075Z,8.82
2023-03-17T08:19:57.084Z,8.80
2023-03-17T08:22:25.217Z,9.68
2023-03-17T08:24:53.667Z,9.35
2023-03-17T08:27:22.264Z,9.05
2023-03-17T08:29:51.110Z,10.00
2023-03-17T08:32:19.567Z,8.02
2023-03-17T08:34:48.533Z,9.32
2023-03-17T08:37:18.201Z,8.68
2023-03-17T08:39:46.851Z,7.50
2023-03-17T08:42:15.000Z,9.13
2023-03-17T08:44:44.155Z,8.18
2023-03-17T08:47:12.454Z,7.72
2023-03-17T08:49:41.089Z,7.95
2023-03-17T08:52:10.044Z,6.53
2023-03-17T08:54:40.084Z,7.78
2023-03-17T08:57:08.171Z,6.85
2023-03-17T08:59:36.613Z,7.90
2023-03-17T09:02:05.760Z,8.18
2023-03-17T09:04:34.965Z,7.95
2023-03-17T09:07:04.337Z,7.53
2023-03-17T09:09:33.578Z,6.55
2023-03-17T09:12:06.318Z,7.63
2023-03-17T09:14:42.908Z,6.97
2023-03-17T09:17:12.005Z,6.22
2023-03-17T09:19:40.429Z,7.15
2023-03-17T09:22:09.226Z,7.07
2023-03-17T09:24:37.314Z,6.80
2023-03-17T09:27:07.136Z,6.88
2023-03-17T09:29:35.651Z,6.85
2023-03-17T09:32:03.877Z,6.40
2023-03-17T09:34:32.807Z,7.57
2023-03-17T09:37:00.873Z,8.57
2023-03-17T09:39:29.044Z,6.90
2023-03-17T09:42:20.396Z,6.15
2023-03-17T09:45:05.558Z,7.20
2023-03-17T09:47:56.515Z,5.13
2023-03-17T09:50:29.603Z,5.70
2023-03-17T09:53:01.440Z,5.68
2023-03-17T09:55:33.734Z,7.03
2023-03-17T09:58:04.463Z,5.75
2023-03-17T10:00:33.131Z,5.88
2023-03-17T10:03:01.608Z,5.70
2023-03-17T10:05:32.177Z,5.20
2023-03-17T10:08:19.072Z,6.63
2023-03-17T10:11:03.159Z,6.65
2023-03-17T10:13:45.606Z,5.43
2023-03-17T10:16:15.511Z,5.72
2023-03-17T10:18:48.232Z,6.13
2023-03-17T10:21:20.389Z,5.22
2023-03-17T10:23:48.501Z,5.20
2023-03-17T10:26:27.145Z,5.68
2023-03-17T10:28:57.399Z,6.68
2023-03-17T10:31:32.887Z,5.82
2023-03-17T10:34:14.285Z,6.00
2023-03-17T10:36:45.012Z,6.60
2023-03-17T10:39:15.891Z,6.10
2023-03-17T10:41:55.785Z,5.80
2023-03-17T10:44:38.509Z,5.32
2023-03-17T10:47:06.839Z,5.53
2023-03-17T10:49:37.788Z,5.55
2023-03-17T10:52:08.859Z,5.78
2023-03-17T10:54:38.539Z,5.32
2023-03-17T10:57:10.607Z,4.47
2023-03-17T10:59:49.165Z,5.75
2023-03-17T11:02:24.162Z,5.55
2023-03-17T11:04:56.717Z,4.78
2023-03-17T11:07:31.271Z,5.90
2023-03-17T11:10:02.612Z,5.63
2023-03-17T11:12:41.321Z,4.85
2023-03-17T11:15:15.636Z,6.70
2023-03-17T11:17:52.792Z,5.65
2023-03-17T11:20:31.411Z,4.97
2023-03-17T11:23:05.459Z,5.15
2023-03-17T11:25:36.145Z,5.03
2023-03-17T11:28:16.334Z,5.63
2023-03-17T11:30:53.418Z,4.57
2023-03-17T11:33:35.441Z,4.78
2023-03-17T11:36:15.744Z,5.25
2023-03-17T11:38:58.615Z,4.15
2023-03-17T11:41:42.379Z,7.60
2023-03-17T11:44:34.445Z,5.38
2023-03-17T11:47:12.605Z,5.85
2023-03-17T11:49:43.309Z,5.20
2023-03-17T11:52:19.772Z,4.78
2023-03-17T11:54:54.400Z,4.82
2023-03-17T11:57:28.222Z,4.32
2023-03-17T12:00:03.396Z,4.57
2023-03-17T12:02:42.584Z,3.70
2023-03-17T12:05:15.448Z,5.95
2023-03-17T12:07:47.348Z,5.05
2023-03-17T12:10:21.839Z,5.00
2023-03-17T12:12:54.503Z,4.53
2023-03-17T12:15:30.443Z,4.20
2023-03-17T12:18:05.628Z,4.97
2023-03-17T12:20:41.475Z,5.60
2023-03-17T12:23:18.915Z,5.15
2023-03-17T12:25:57.654Z,5.22
2023-03-17T12:28:29.808Z,4.75
2023-03-17T12:31:05.832Z,4.15
2023-03-17T12:33:43.785Z,4.57
2023-03-17T12:36:16.233Z,4.20
2023-03-17T12:38:49.465Z,4.05
2023-03-17T12:41:38.318Z,4.82
2023-03-17T12:44:11.264Z,4.25
2023-03-17T12:47:10.379Z,4.93
2023-03-17T12:50:11.096Z,4.82
2023-03-17T12:52:57.105Z,4.53
2023-03-17T12:55:28.141Z,4.03
2023-03-17T13:00:36.145Z,5.32
2023-03-17T13:03:22.217Z,4.00
2023-03-17T13:05:53.224Z,4.47
2023-03-17T13:08:28.256Z,3.85
2023-03-17T13:11:19.112Z,3.75
2023-03-17T13:13:59.531Z,4.28
2023-03-17T13:16:33.842Z,3.78
2023-03-17T13:19:23.795Z,4.68
2023-03-17T13:21:58.891Z,4.15
2023-03-17T13:24:47.159Z,4.65
2023-03-17T13:27:36.548Z,4.68
2023-03-17T13:30:38.192Z,4.10
2023-03-17T13:33:23.690Z,3.78
2023-03-17T13:36:30.318Z,3.70
2023-03-17T13:39:27.660Z,4.28
2023-03-17T13:42:37.168Z,4.75
2023-03-17T13:45:37.212Z,3.95
2023-03-17T13:48:33.627Z,4.45
2023-03-17T13:51:05.045Z,4.35
2023-03-17T13:53:39.370Z,5.57
2023-03-17T13:56:19.724Z,3.97
2023-03-17T13:59:05.515Z,4.15
2023-03-17T14:01:42.510Z,4.70
2023-03-17T14:04:23.639Z,3.35
2023-03-17T14:06:56.138Z,4.88
2023-03-17T14:09:35.699Z,4.40
2023-03-17T14:12:12.549Z,3.85
2023-03-17T14:14:48.061Z,3.63
2023-03-17T14:17:20.728Z,4.00
2023-03-17T14:20:07.040Z,3.92
2023-03-17T14:22:45.038Z,4.07
2023-03-17T14:25:18.235Z,4.28
2023-03-17T14:27:49.024Z,3.90
2023-03-17T14:30:21.205Z,4.32
2023-03-17T14:32:53.114Z,4.25
2023-03-17T14:35:22.731Z,3.40
2023-03-17T14:37:51.337Z,4.43
2023-03-17T14:40:23.233Z,3.70
2023-03-17T14:42:51.489Z,3.85
2023-03-17T14:45:23.471Z,3.53
2023-03-17T14:47:52.782Z,3.55
2023-03-17T14:50:27.466Z,3.28
2023-03-17T14:52:56.870Z,3.40
2023-03-17T14:55:35.768Z,3.63
2023-03-17T14:58:20.295Z,4.70
2023-03-17T15:00:55.470Z,4.10
2023-03-17T15:03:26.306Z,4.32
2023-03-17T15:06:05.852Z,4.18
2023-03-17T15:08:49.846Z,3.90
2023-03-17T15:11:26.336Z,3.60
2023-03-17T15:13:58.011Z,3.92
2023-03-17T15:16:30.610Z,3.95
2023-03-17T15:19:06.790Z,3.65
2023-03-17T15:21:41.729Z,3.60
2023-03-17T15:24:38.078Z,4.20
2023-03-17T15:27:08.528Z,3.45
2023-03-17T15:29:36.664Z,4.32
2023-03-17T15:32:12.779Z,4.25
2023-03-17T15:34:41.424Z,4.20
2023-03-17T15:37:21.786Z,3.28
2023-03-17T15:39:53.023Z,3.42
2023-03-17T15:42:23.305Z,3.40
2023-03-17T15:44:52.054Z,3.72
2023-03-17T15:47:22.405Z,3.92
2023-03-17T15:49:51.776Z,3.80
2023-03-17T15:52:25.009Z,3.85
2023-03-17T15:54:56.517Z,3.50
2023-03-17T15:57:25.429Z,3.70
2023-03-17T15:59:53.876Z,3.78
2023-03-17T16:02:28.927Z,4.63
2023-03-17T16:04:57.836Z,2.42
2023-03-17T16:07:27.401Z,3.60
2023-03-17T16:09:55.559Z,3.50
2023-03-17T16:12:24.010Z,3.90
2023-03-17T16:14:52.118Z,3.15
2023-03-17T16:17:26.954Z,4.75
2023-03-17T16:19:55.925Z,4.45
2023-03-17T16:22:39.378Z,3.88
2023-03-17T16:25:20.171Z,3.17
2023-03-17T16:27:49.433Z,3.65
2023-03-17T16:30:20.405Z,3.75
2023-03-17T16:32:50.394Z,4.18
2023-03-17T16:35:20.934Z,3.70
2023-03-17T16:37:54.149Z,3.20
2023-03-17T16:40:24.695Z,3.67
2023-03-17T16:42:53.470Z,4.97
2023-03-17T16:45:27.492Z,2.80
2023-03-17T16:47:56.927Z,3.47
2023-03-17T16:50:27.301Z,4.22
2023-03-17T16:52:57.348Z,3.92
2023-03-17T16:55:27.246Z,5.35
2023-03-17T16:57:58.822Z,4.32
2023-03-17T17:00:30.089Z,4.10
2023-03-17T17:03:00.921Z,4.32
2023-03-17T17:05:31.216Z,4.28
2023-03-17T17:08:00.982Z,4.50
2023-03-17T17:10:31.402Z,3.88
2023-03-17T17:13:00.057Z,3.70
2023-03-17T17:15:28.825Z,3.83
2023-03-17T17:18:00.593Z,3.58
2023-03-17T17:20:30.966Z,3.83
2023-03-17T17:23:04.923Z,4.88
2023-03-17T17:25:33.788Z,3.80
2023-03-17T17:28:02.033Z,3.67
2023-03-17T17:30:36.446Z,4.00
2023-03-17T17:33:05.925Z,4.95
2023-03-17T17:35:34.454Z,3.33
2023-03-17T17:38:04.263Z,4.70
2023-03-17T17:40:33.304Z,3.72
2023-03-17T17:43:01.847Z,4.30
2023-03-17T17:45:30.661Z,4.32
2023-03-17T17:47:59.011Z,5.20
2023-03-17T17:50:30.088Z,4.28
2023-03-17T17:53:04.929Z,4.88
2023-03-17T17:55:34.872Z,4.20
2023-03-17T17:58:02.941Z,4.55
2023-03-17T18:00:32.581Z,3.90
2023-03-17T18:03:01.433Z,4.28
2023-03-17T18:05:29.667Z,6.03
2023-03-17T18:07:58.240Z,3.97
2023-03-17T18:10:27.090Z,4.05
2023-03-17T18:12:57.466Z,4.43
2023-03-17T18:15:27.512Z,5.10
2023-03-17T18:17:56.049Z,4.35
2023-03-17T18:20:24.704Z,4.78
2023-03-17T18:22:54.078Z,5.03
2023-03-17T18:25:22.187Z,4.65
2023-03-17T18:27:50.323Z,4.50
2023-03-17T18:30:24.245Z,3.95
2023-03-17T18:32:56.386Z,5.55
2023-03-17T18:35:27.094Z,4.05
2023-03-17T18:37:57.606Z,5.38
2023-03-17T18:40:26.552Z,5.40
2023-03-17T18:42:55.274Z,5.70
2023-03-17T18:45:24.881Z,3.70
2023-03-17T18:47:55.855Z,4.95
2023-03-17T18:50:24.131Z,4.28
2023-03-17T18:52:52.428Z,6.72
2023-03-17T18:55:20.850Z,5.10
2023-03-17T18:57:49.372Z,6.10
2023-03-17T19:00:18.596Z,5.53
2023-03-17T19:02:48.500Z,4.80
2023-03-17T19:05:16.663Z,4.95
2023-03-17T19:07:45.312Z,4.80
2023-03-17T19:10:15.097Z,6.00
2023-03-17T19:12:45.250Z,5.28
2023-03-17T19:15:14.564Z,5.05
2023-03-17T19:17:43.043Z,4.95
2023-03-17T19:20:15.288Z,4.50
2023-03-17T19:22:43.442Z,5.38
2023-03-17T19:25:12.677Z,5.15
2023-03-17T19:27:41.260Z,5.05
2023-03-17T19:30:10.677Z,5.20
2023-03-17T19:32:39.055Z,5.10
2023-03-17T19:35:08.616Z,5.65
2023-03-17T19:37:38.412Z,5.70
2023-03-17T19:40:08.537Z,5.53
2023-03-17T19:42:36.952Z,5.18
2023-03-17T19:45:06.140Z,5.68
2023-03-17T19:47:34.387Z,5.82
2023-03-17T19:50:02.662Z,5.22
2023-03-17T19:52:30.922Z,5.00
2023-03-17T19:55:00.391Z,5.03
2023-03-17T19:57:28.442Z,7.63
2023-03-17T19:59:57.328Z,5.22
2023-03-17T20:02:25.627Z,6.00
2023-03-17T20:04:54.627Z,6.50
2023-03-17T20:07:22.864Z,5.82
2023-03-17T20:09:51.221Z,6.72
2023-03-17T20:12:21.048Z,8.15
2023-03-17T20:14:49.273Z,7.38
2023-03-17T20:17:17.846Z,6.32
2023-03-17T20:19:46.894Z,6.13
2023-03-17T20:22:15.087Z,5.93
2023-03-17T20:24:43.541Z,8.40
2023-03-17T20:27:15.265Z,6.55
2023-03-17T20:29:45.361Z,7.75
2023-03-17T20:32:14.941Z,7.22
2023-03-17T20:34:44.152Z,7.82
2023-03-17T20:37:14.175Z,6.63
2023-03-17T20:39:42.395Z,7.72
2023-03-17T20:42:14.555Z,8.75
2023-03-17T20:44:44.249Z,7.55
2023-03-17T20:47:14.092Z,5.63
2023-03-17T20:49:42.635Z,6.50
2023-03-17T20:52:13.332Z,8.00
2023-03-17T20:54:41.697Z,6.68
2023-03-17T20:57:14.099Z,7.15
2023-03-17T20:59:45.213Z,6.53
2023-03-17T21:02:18.366Z,7.95
2023-03-17T21:04:48.927Z,7.50
2023-03-17T21:07:18.775Z,6.50
2023-03-17T21:09:47.738Z,5.93
2023-03-17T21:12:18.187Z,7.18
2023-03-17T21:14:49.129Z,6.90
2023-03-17T21:17:18.075Z,6.15
2023-03-17T21:19:47.435Z,7.78
2023-03-17T21:22:16.037Z,7.20
2023-03-17T21:24:44.111Z,6.60
2023-03-17T21:27:12.627Z,7.63
2023-03-17T21:29:41.145Z,6.80
2023-03-17T21:32:10.937Z,6.90
2023-03-17T21:34:39.142Z,6.95
2023-03-17T21:37:07.851Z,6.97
2023-03-17T21:39:36.749Z,7.43
2023-03-17T21:42:06.903Z,6.18
2023-03-17T21:44:35.162Z,6.68
2023-03-17T21:47:03.697Z,6.78
2023-03-17T21:49:33.325Z,8.60
2023-03-17T21:52:01.772Z,8.05
2023-03-17T21:54:30.458Z,8.13
2023-03-17T21:56:58.760Z,8.07
2023-03-17T21:59:29.338Z,8.52
2023-03-17T22:01:57.898Z,6.55
2023-03-17T22:04:26.392Z,7.90
2023-03-17T22:06:56.637Z,7.75
2023-03-17T22:09:24.781Z,7.20
2023-03-17T22:11:53.082Z,6.93
2023-03-17T22:14:21.169Z,7.15
2023-03-17T22:16:49.618Z,6.80
2023-03-17T22:19:21.042Z,9.30
2023-03-17T22:21:51.767Z,7.25
2023-03-17T22:24:21.542Z,7.57
2023-03-17T22:26:50.129Z,7.05
2023-03-17T22:29:18.690Z,8.70
2023-03-17T22:31:47.152Z,6.97
2023-03-17T22:34:15.298Z,7.60
2023-03-17T22:36:43.399Z,7.13
2023-03-17T22:39:11.909Z,6.70
2023-03-17T22:41:41.541Z,8.98
2023-03-17T22:44:11.631Z,7.32
2023-03-17T22:46:40.876Z,8.25
2023-03-17T22:49:11.932Z,8.50
2023-03-17T22:51:41.345Z,6.95
2023-03-17T22:54:11.345Z,7.25
2023-03-17T22:56:40.995Z,7.32
2023-03-17T22:59:09.316Z,8.48
2023-03-17T23:01:37.525Z,7.07
2023-03-17T23:04:05.764Z,7.65
2023-03-17T23:06:35.204Z,10.43
2023-03-17T23:09:03.443Z,9.13
2023-03-17T23:11:32.720Z,8.52
2023-03-17T23:14:04.423Z,7.30
2023-03-17T23:16:32.517Z,6.65
2023-03-17T23:19:00.924Z,8.18
2023-03-17T23:21:31.894Z,8.00
2023-03-17T23:24:00.986Z,7.53
2023-03-17T23:26:30.073Z,8.43
2023-03-17T23:28:58.089Z,8.95
2023-03-17T23:31:27.575Z,10.05
2023-03-17T23:33:55.685Z,8.02
2023-03-17T23:36:23.773Z,8.02
2023-03-17T23:38:52.289Z,9.55
2023-03-17T23:41:21.033Z,8.18
2023-03-17T23:43:49.827Z,9.80
2023-03-17T23:46:20.688Z,8.23
2023-03-17T23:48:51.235Z,9.55
2023-03-17T23:51:19.660Z,9.10
2023-03-17T23:53:48.095Z,9.23
2023-03-17T23:56:16.285Z,8.38
2023-03-17T23:58:44.803Z,8.25
